Hovedside
METAR-TAF:

METAR-TAF

Lufthavner :

Juigalpa, Nicaragua

breddegrad: 12-06N, lengdegrad: 085-22W, høyde over havet: 90 m

Gjeldene værobservasjon

Denne rapporten ble laget for 4 timer og 13 minutter siden, klokken 23:00 UTC
Vind 4 kt fra Sørvest
Temperatur 33°C
Luftfuktighet 56%
Trykk 1008 hPa
Sikt 10 km eller mer
Spredte skyer i en høyde av 2000 ft
Spredte skyer i en høyde av 8000 ft

METAR: MNJU 192300Z 23004KT 9999 SCT020 SCT080 33/23 Q1008

Tid: 21:13 (03:13 UTC)


TAF: fraværende

Værobservasjoner og værvarsel for over 4000 flyplasser (METAR- og TAF-rapporter).

Tilgjengelige stasjoner er representert av de røde og gule prikkene på kartet.

Hold musepekeren over prikken for å se navnet på stasjonen.

Klikk så for å se værobservasjoner og -varsler.

For å forandre kartet kan du klikke på den grønne knappen med svart kryss for å zoome inn, på den grønne knappen med strek for å zoome ut, eller på de grønne pilene for å se tilstøtende kart.


METAR-TAF: